Time;durP1;ratioP1;P1;durP2;ratioP2;P2;SDS_P1;SDS_P2;PMS_P1;PMS_P2;Temp;Humidity;BMP_temperature;BMP_pressure;BME280_temperature;BME280_humidity;BME280_pressure;Samples;Min_cycle;Max_cycle;Signal;HPM_P1;HPM_P2
2022/02/25 00:01:45;;;;;;;3.03;0.93;;;3.60;99.90;;;;;;5050863;28;20363;-76
2022/02/25 00:04:10;;;;;;;1.13;0.73;;;3.50;99.90;;;;;;5050274;28;20100;-76
2022/02/25 00:06:36;;;;;;;3.67;0.90;;;3.40;99.90;;;;;;5050360;28;20044;-76
2022/02/25 00:09:01;;;;;;;3.67;1.27;;;3.30;99.90;;;;;;5050323;28;20079;-76
2022/02/25 00:11:27;;;;;;;1.17;0.83;;;3.30;99.90;;;;;;5050015;28;20029;-76
2022/02/25 00:13:52;;;;;;;1.47;0.90;;;3.20;99.90;;;;;;5050265;28;20052;-76
2022/02/25 00:16:18;;;;;;;2.30;0.90;;;3.20;99.90;;;;;;5050446;28;20048;-76
2022/02/25 00:18:43;;;;;;;3.67;1.00;;;3.10;99.90;;;;;;5051270;28;20124;-77
2022/02/25 00:21:09;;;;;;;2.07;1.03;;;3.00;99.90;;;;;;5053413;28;20063;-77
2022/02/25 00:23:34;;;;;;;1.47;0.87;;;2.90;99.90;;;;;;5053114;28;20043;-77
2022/02/25 00:26:00;;;;;;;0.67;0.67;;;2.80;99.90;;;;;;5053284;28;20033;-76
2022/02/25 00:28:26;;;;;;;1.97;0.80;;;2.90;99.90;;;;;;5052911;28;20071;-76
2022/02/25 00:30:51;;;;;;;1.10;0.63;;;2.90;99.90;;;;;;5053018;28;20033;-77
2022/02/25 00:33:17;;;;;;;2.50;0.90;;;2.80;99.90;;;;;;5053523;28;20036;-76
2022/02/25 00:35:43;;;;;;;1.43;0.90;;;2.90;99.90;;;;;;5052887;28;20033;-77
2022/02/25 00:38:08;;;;;;;2.43;0.80;;;2.90;99.90;;;;;;5053487;28;20021;-77
2022/02/25 00:40:34;;;;;;;2.60;0.90;;;2.80;99.90;;;;;;5052029;28;20415;-77
2022/02/25 00:42:59;;;;;;;2.03;0.90;;;2.70;99.90;;;;;;5053224;28;20079;-77
2022/02/25 00:45:25;;;;;;;2.70;0.80;;;2.80;99.90;;;;;;5052767;28;20359;-77
2022/02/25 00:47:51;;;;;;;4.20;1.40;;;2.60;99.90;;;;;;5053203;28;20041;-77
2022/02/25 00:50:16;;;;;;;3.10;0.90;;;2.40;99.90;;;;;;5052967;28;20107;-77
2022/02/25 00:52:42;;;;;;;2.40;1.27;;;2.20;99.90;;;;;;5051443;28;20112;-77
2022/02/25 00:55:08;;;;;;;3.43;0.97;;;2.20;99.90;;;;;;5051404;28;20079;-77
2022/02/25 00:57:35;;;;;;;5.70;1.00;;;2.10;99.90;;;;;;5052980;28;20033;-77
2022/02/25 01:00:00;;;;;;;2.17;0.90;;;2.10;99.90;;;;;;5052931;28;20039;-77
2022/02/25 01:02:26;;;;;;;5.53;1.10;;;2.00;99.90;;;;;;5051203;28;20119;-78
2022/02/25 01:04:52;;;;;;;2.87;1.03;;;2.00;99.90;;;;;;5052679;28;20025;-78
2022/02/25 01:07:17;;;;;;;2.30;1.33;;;1.90;99.90;;;;;;5052521;28;20108;-76
2022/02/25 01:09:43;;;;;;;1.77;1.00;;;1.90;99.90;;;;;;5052751;28;20061;-77
2022/02/25 01:12:10;;;;;;;2.50;1.17;;;1.90;99.90;;;;;;5052368;28;20025;-77
2022/02/25 01:14:36;;;;;;;3.97;1.40;;;1.80;99.90;;;;;;5052126;28;20025;-77
2022/02/25 01:17:01;;;;;;;2.97;1.07;;;1.80;99.90;;;;;;5051527;28;20025;-74
2022/02/25 01:19:27;;;;;;;2.53;1.20;;;1.80;99.90;;;;;;5051255;28;20037;-74
2022/02/25 01:21:53;;;;;;;1.97;1.10;;;1.70;99.90;;;;;;5050867;28;20037;-74
2022/02/25 01:24:19;;;;;;;2.20;1.23;;;1.70;99.90;;;;;;5054323;28;20370;-74
2022/02/25 01:26:45;;;;;;;1.17;1.00;;;1.80;99.90;;;;;;5055017;28;20039;-73
2022/02/25 01:29:11;;;;;;;2.27;1.03;;;1.90;99.90;;;;;;5054665;28;20029;-73
2022/02/25 01:31:37;;;;;;;2.10;0.80;;;1.90;99.90;;;;;;5054614;28;20485;-73
2022/02/25 01:34:03;;;;;;;2.13;1.03;;;1.90;99.90;;;;;;5054494;28;20040;-74
2022/02/25 01:36:28;;;;;;;1.00;0.90;;;1.90;99.90;;;;;;5054491;28;20116;-74
2022/02/25 01:38:54;;;;;;;2.17;0.80;;;1.90;99.90;;;;;;5053353;28;20467;-73
2022/02/25 01:41:19;;;;;;;2.07;0.80;;;2.00;99.90;;;;;;5053979;28;20188;-73
2022/02/25 01:43:45;;;;;;;1.10;0.80;;;2.00;99.90;;;;;;5054040;28;20060;-74
2022/02/25 01:46:11;;;;;;;1.93;0.90;;;2.10;99.90;;;;;;5046866;28;20539;-74
2022/02/25 01:48:36;;;;;;;2.47;0.90;;;2.10;99.90;;;;;;5050821;28;20063;-73
2022/02/25 01:51:04;;;;;;;1.93;1.00;;;2.00;99.90;;;;;;5053812;28;20029;-73
2022/02/25 01:53:30;;;;;;;2.53;0.90;;;2.00;99.90;;;;;;5054112;28;20055;-74
2022/02/25 01:55:55;;;;;;;1.43;0.77;;;2.10;99.90;;;;;;5053914;28;20445;-74
2022/02/25 01:58:24;;;;;;;0.83;0.70;;;2.10;99.90;;;;;;5054096;28;20351;-74
2022/02/25 02:00:50;;;;;;;1.13;0.83;;;2.10;99.90;;;;;;5053960;28;20100;-74
2022/02/25 02:03:16;;;;;;;1.03;0.73;;;2.00;99.90;;;;;;5053758;28;20536;-74
2022/02/25 02:05:42;;;;;;;2.30;0.77;;;2.00;99.90;;;;;;5053847;28;20037;-74
2022/02/25 02:08:07;;;;;;;3.03;0.80;;;2.00;99.90;;;;;;5053785;28;20029;-74
2022/02/25 02:10:33;;;;;;;2.80;0.90;;;2.00;99.90;;;;;;5053903;28;20033;-74
2022/02/25 02:12:58;;;;;;;1.63;0.90;;;2.00;99.90;;;;;;5053570;28;20497;-74
2022/02/25 02:15:24;;;;;;;3.17;0.80;;;1.90;99.90;;;;;;5052745;28;20021;-74
2022/02/25 02:17:50;;;;;;;1.70;0.80;;;1.90;99.90;;;;;;5053837;28;20447;-74
2022/02/25 02:20:16;;;;;;;1.67;0.73;;;1.90;99.90;;;;;;5053329;28;20143;-74
2022/02/25 02:22:41;;;;;;;0.87;0.70;;;2.00;99.90;;;;;;5053276;28;20052;-74
2022/02/25 02:25:07;;;;;;;2.67;1.13;;;1.90;99.90;;;;;;5052319;28;20033;-74
2022/02/25 02:30:19;;;;;;;1.67;0.90;;;1.90;99.90;;;;;;5052604;28;20036;-73
2022/02/25 02:32:45;;;;;;;1.77;0.80;;;1.90;99.90;;;;;;5053047;28;20116;-73
2022/02/25 02:35:10;;;;;;;2.17;1.00;;;1.90;99.90;;;;;;5052814;28;20529;-73
2022/02/25 02:37:36;;;;;;;3.17;0.93;;;1.90;99.90;;;;;;5053277;28;20033;-73
2022/02/25 02:40:03;;;;;;;2.53;0.70;;;2.00;99.90;;;;;;5053236;28;20033;-74
2022/02/25 02:42:29;;;;;;;1.00;0.90;;;2.00;99.90;;;;;;5053102;28;20051;-73
2022/02/25 02:44:54;;;;;;;1.37;0.83;;;2.00;99.90;;;;;;5053092;28;20350;-74
2022/02/25 02:47:20;;;;;;;1.83;0.90;;;2.00;99.90;;;;;;5052825;28;20048;-74
2022/02/25 02:49:45;;;;;;;2.43;0.90;;;2.00;99.90;;;;;;5052762;28;20112;-74
2022/02/25 02:52:11;;;;;;;1.07;0.90;;;2.00;99.90;;;;;;5052815;28;20024;-74
2022/02/25 02:54:36;;;;;;;1.47;0.87;;;2.10;99.90;;;;;;5052899;28;20511;-74
2022/02/25 02:57:02;;;;;;;2.07;0.90;;;2.00;99.90;;;;;;5053099;28;20817;-74
2022/02/25 02:59:28;;;;;;;2.23;0.90;;;2.10;99.90;;;;;;5052854;28;20025;-74
2022/02/25 03:01:53;;;;;;;3.10;0.97;;;2.10;99.90;;;;;;5052569;28;20107;-74
2022/02/25 03:04:19;;;;;;;3.70;0.70;;;2.10;99.90;;;;;;5052778;28;20100;-74
2022/02/25 03:06:44;;;;;;;1.47;0.83;;;2.10;99.90;;;;;;5052906;28;20037;-74
2022/02/25 03:09:11;;;;;;;3.83;0.90;;;2.10;99.90;;;;;;5051293;28;20051;-74
2022/02/25 03:11:37;;;;;;;2.07;0.80;;;2.10;99.90;;;;;;5052743;28;20439;-74
2022/02/25 03:14:03;;;;;;;1.07;0.77;;;2.10;99.90;;;;;;5051379;28;20027;-73
2022/02/25 03:16:29;;;;;;;1.60;0.73;;;2.00;99.90;;;;;;5052627;28;20070;-74
2022/02/25 03:18:54;;;;;;;4.87;0.97;;;2.00;99.90;;;;;;5050850;28;20432;-73
2022/02/25 03:21:20;;;;;;;3.47;0.90;;;2.00;99.90;;;;;;5052515;28;20043;-74
2022/02/25 03:23:45;;;;;;;2.97;0.73;;;2.00;99.90;;;;;;5051326;28;20075;-74
2022/02/25 03:26:11;;;;;;;2.50;0.80;;;2.00;99.90;;;;;;5052671;28;20120;-73
2022/02/25 03:28:37;;;;;;;2.03;0.90;;;2.00;99.90;;;;;;5052230;28;20090;-74
2022/02/25 03:31:02;;;;;;;1.47;1.00;;;2.00;99.90;;;;;;5052208;28;20037;-74
2022/02/25 03:33:28;;;;;;;1.67;0.90;;;2.00;99.90;;;;;;5052284;28;20028;-74
2022/02/25 03:35:54;;;;;;;1.13;0.73;;;2.00;99.90;;;;;;5052579;28;20025;-74
2022/02/25 03:38:19;;;;;;;5.30;1.10;;;2.10;99.90;;;;;;5052631;28;20036;-74
2022/02/25 03:40:45;;;;;;;2.50;0.83;;;2.10;99.90;;;;;;5051941;28;20032;-74
2022/02/25 03:43:10;;;;;;;2.73;0.90;;;2.10;99.90;;;;;;5052027;28;20207;-74
2022/02/25 03:45:36;;;;;;;1.10;0.80;;;2.00;99.90;;;;;;5050242;28;20240;-74
2022/02/25 03:48:02;;;;;;;1.73;0.90;;;2.10;99.90;;;;;;5052074;28;20040;-74
2022/02/25 03:50:28;;;;;;;2.43;1.10;;;2.00;99.90;;;;;;5051738;28;20029;-74
2022/02/25 03:52:53;;;;;;;3.40;1.00;;;2.00;99.90;;;;;;5051760;28;20040;-74
2022/02/25 03:55:19;;;;;;;2.00;1.00;;;2.00;99.90;;;;;;5051880;28;20069;-74
2022/02/25 03:57:44;;;;;;;2.23;0.90;;;2.10;99.90;;;;;;5051699;28;20029;-73
2022/02/25 04:00:11;;;;;;;2.67;1.00;;;2.10;99.90;;;;;;5051805;28;20025;-73
2022/02/25 04:02:37;;;;;;;2.17;1.57;;;2.10;99.90;;;;;;5051941;28;20109;-73
2022/02/25 04:05:03;;;;;;;3.77;1.23;;;2.00;99.90;;;;;;5051782;28;20470;-73
2022/02/25 04:07:28;;;;;;;4.43;1.20;;;2.00;99.90;;;;;;5051684;28;20029;-73
2022/02/25 04:09:54;;;;;;;2.60;0.90;;;2.10;99.90;;;;;;5051888;28;20082;-73
2022/02/25 04:12:20;;;;;;;3.73;1.10;;;2.10;99.90;;;;;;5051840;28;20031;-74
2022/02/25 04:14:45;;;;;;;2.83;1.17;;;2.00;99.90;;;;;;5050462;28;20028;-72
2022/02/25 04:17:12;;;;;;;1.83;0.83;;;2.00;99.90;;;;;;5051548;28;20037;-73
2022/02/25 04:19:37;;;;;;;1.47;0.90;;;2.10;99.90;;;;;;5051974;28;20383;-73
2022/02/25 04:22:04;;;;;;;1.20;0.80;;;2.10;99.90;;;;;;5051610;28;20052;-73
2022/02/25 04:24:29;;;;;;;2.70;1.20;;;2.00;99.90;;;;;;5051395;28;20033;-73
2022/02/25 04:26:55;;;;;;;3.80;1.00;;;2.00;99.90;;;;;;5051648;28;20080;-73
2022/02/25 04:29:21;;;;;;;2.87;1.20;;;2.10;99.90;;;;;;5051666;28;20066;-73
2022/02/25 04:31:46;;;;;;;2.57;0.97;;;2.10;99.90;;;;;;5051518;28;20131;-74
2022/02/25 04:34:12;;;;;;;2.17;0.97;;;2.10;99.90;;;;;;5051404;28;20105;-73
2022/02/25 04:36:38;;;;;;;2.20;1.00;;;2.00;99.90;;;;;;5051399;28;20025;-73
2022/02/25 04:39:06;;;;;;;3.27;1.10;;;2.00;99.90;;;;;;5051471;28;20029;-73
2022/02/25 04:41:32;;;;;;;5.07;1.20;;;2.00;99.90;;;;;;5051458;28;20033;-73
2022/02/25 04:43:57;;;;;;;2.73;1.00;;;2.00;99.90;;;;;;5050591;28;20503;-73
2022/02/25 04:46:26;;;;;;;3.20;0.90;;;2.10;99.90;;;;;;5049613;28;20082;-73
2022/02/25 04:48:51;;;;;;;3.83;0.97;;;2.10;99.90;;;;;;5041623;28;20467;-73
2022/02/25 04:51:17;;;;;;;1.97;0.97;;;2.10;99.90;;;;;;5051252;28;20073;-73
2022/02/25 04:53:44;;;;;;;2.90;1.10;;;2.00;99.90;;;;;;5051272;28;20033;-73
2022/02/25 04:56:10;;;;;;;1.63;1.00;;;2.00;99.90;;;;;;5051287;28;20033;-73
2022/02/25 04:58:35;;;;;;;3.57;1.00;;;1.90;99.90;;;;;;5053429;28;20040;-73
2022/02/25 05:01:02;;;;;;;5.33;1.40;;;1.90;99.90;;;;;;5055299;28;20029;-73
2022/02/25 05:03:28;;;;;;;2.63;0.90;;;2.00;99.90;;;;;;5055413;28;20044;-73
2022/02/25 05:05:54;;;;;;;2.50;1.00;;;1.90;99.90;;;;;;5055581;28;20025;-73
2022/02/25 05:08:20;;;;;;;1.63;0.90;;;1.90;99.90;;;;;;5055124;28;20037;-74
2022/02/25 05:10:45;;;;;;;3.77;1.27;;;1.90;99.90;;;;;;5055056;28;20083;-74
2022/02/25 05:13:11;;;;;;;3.07;1.10;;;2.00;99.90;;;;;;5055043;28;20039;-74
2022/02/25 05:21:25;;;;;;;3.17;1.00;;;1.90;99.90;;;;;;5044133;28;20268;-80
2022/02/25 05:23:51;;;;;;;2.13;0.90;;;1.90;99.90;;;;;;5034205;28;20044;-80
2022/02/25 05:26:17;;;;;;;1.50;1.00;;;1.80;99.90;;;;;;5041751;28;20048;-80
2022/02/25 05:28:42;;;;;;;4.47;1.10;;;1.80;99.90;;;;;;5051764;28;20071;-80
2022/02/25 05:31:08;;;;;;;5.73;1.20;;;1.80;99.90;;;;;;5050793;28;20044;-80
2022/02/25 05:33:33;;;;;;;2.63;1.10;;;1.80;99.90;;;;;;5049180;28;20033;-80
2022/02/25 05:36:00;;;;;;;4.33;1.30;;;2.00;99.90;;;;;;5050248;28;20029;-80
2022/02/25 05:38:25;;;;;;;2.57;1.50;;;1.90;99.90;;;;;;5052014;28;20025;-80
2022/02/25 05:40:51;;;;;;;5.43;1.23;;;1.90;99.90;;;;;;5050604;28;20078;-73
2022/02/25 05:43:17;;;;;;;2.47;1.10;;;2.00;99.90;;;;;;5044990;28;20037;-73
2022/02/25 05:45:42;;;;;;;3.30;1.20;;;1.90;99.90;;;;;;5045421;28;20181;-73
2022/02/25 05:48:08;;;;;;;6.17;1.60;;;1.80;99.90;;;;;;5051099;28;20436;-73
2022/02/25 05:50:34;;;;;;;5.80;1.17;;;1.80;99.90;;;;;;5048335;28;20036;-74
2022/02/25 05:52:59;;;;;;;4.60;1.73;;;1.80;99.90;;;;;;5050762;28;20029;-73
2022/02/25 05:55:25;;;;;;;4.13;1.20;;;1.80;99.90;;;;;;5047754;28;20068;-73
2022/02/25 05:57:52;;;;;;;4.20;1.57;;;1.80;99.90;;;;;;5042067;28;20025;-73
2022/02/25 06:00:19;;;;;;;3.27;1.13;;;1.80;99.90;;;;;;5037440;28;20056;-73
2022/02/25 06:02:46;;;;;;;3.50;1.30;;;1.80;99.90;;;;;;5049943;28;20357;-73
2022/02/25 06:05:12;;;;;;;4.27;1.40;;;1.90;99.90;;;;;;5047588;28;20044;-74
2022/02/25 06:07:38;;;;;;;2.30;1.20;;;1.80;99.90;;;;;;5042524;28;20039;-73
2022/02/25 06:10:04;;;;;;;2.63;1.40;;;1.80;99.90;;;;;;5042233;28;20026;-74
2022/02/25 06:12:30;;;;;;;3.80;1.13;;;1.70;99.90;;;;;;5044817;28;20458;-75
2022/02/25 06:14:56;;;;;;;3.27;1.00;;;1.70;99.90;;;;;;5033881;28;20029;-75
2022/02/25 06:17:22;;;;;;;4.10;1.33;;;1.60;99.90;;;;;;5034435;28;20049;-74
2022/02/25 06:19:47;;;;;;;3.03;1.10;;;1.60;99.90;;;;;;5035282;28;20363;-74
2022/02/25 06:22:13;;;;;;;4.33;1.30;;;1.50;99.90;;;;;;5035601;28;20029;-75
2022/02/25 06:24:38;;;;;;;2.67;1.30;;;1.50;99.90;;;;;;5035030;28;20436;-75
2022/02/25 06:27:04;;;;;;;5.53;1.40;;;1.40;99.90;;;;;;5035215;28;20035;-75
2022/02/25 06:29:29;;;;;;;4.90;1.40;;;1.40;99.90;;;;;;5034882;28;20057;-76
2022/02/25 06:31:55;;;;;;;3.67;1.20;;;1.40;99.90;;;;;;5035105;28;20030;-75
2022/02/25 06:34:21;;;;;;;5.30;1.17;;;1.40;99.90;;;;;;5034068;28;20105;-74
2022/02/25 06:36:47;;;;;;;3.57;1.47;;;1.30;99.90;;;;;;5034814;28;20469;-75
2022/02/25 06:39:13;;;;;;;2.70;1.27;;;1.30;99.90;;;;;;5035044;28;20025;-75
2022/02/25 06:41:39;;;;;;;6.73;1.80;;;1.30;99.90;;;;;;5034950;28;20032;-75
2022/02/25 06:44:05;;;;;;;4.67;1.50;;;1.30;99.90;;;;;;5033291;28;20029;-75
2022/02/25 06:46:31;;;;;;;4.23;1.40;;;1.20;99.90;;;;;;5034486;28;20049;-75
2022/02/25 06:48:56;;;;;;;5.00;1.43;;;1.20;99.90;;;;;;5035365;28;20033;-75
2022/02/25 06:51:22;;;;;;;4.03;1.70;;;1.20;99.90;;;;;;5034725;28;20450;-75
2022/02/25 06:53:47;;;;;;;6.80;1.67;;;1.20;99.90;;;;;;5034552;28;20037;-75
2022/02/25 06:56:13;;;;;;;2.47;1.30;;;1.20;99.90;;;;;;5034663;28;20030;-75
2022/02/25 06:58:39;;;;;;;4.33;1.40;;;1.20;99.90;;;;;;5034196;28;20159;-75
2022/02/25 07:01:05;;;;;;;4.00;1.40;;;1.10;99.90;;;;;;5034586;28;20036;-75
2022/02/25 07:03:32;;;;;;;3.40;1.57;;;1.10;99.90;;;;;;5034461;28;20049;-75
2022/02/25 07:05:58;;;;;;;3.93;1.43;;;1.10;99.90;;;;;;5034456;28;20083;-75
2022/02/25 07:08:24;;;;;;;4.17;1.30;;;1.10;99.90;;;;;;5034181;28;20394;-75
2022/02/25 07:10:50;;;;;;;8.17;2.10;;;1.10;99.90;;;;;;5034264;28;20033;-75
2022/02/25 07:13:17;;;;;;;5.70;1.30;;;1.10;99.90;;;;;;5034029;28;20359;-75
2022/02/25 07:15:42;;;;;;;8.20;1.77;;;1.20;99.90;;;;;;5034303;28;20030;-75
2022/02/25 07:18:09;;;;;;;4.27;1.17;;;1.10;99.90;;;;;;5034261;28;20493;-75
2022/02/25 07:20:36;;;;;;;12.13;1.93;;;1.10;99.90;;;;;;5033257;28;20078;-75
2022/02/25 07:23:03;;;;;;;6.60;1.37;;;1.10;99.90;;;;;;5033983;28;20102;-75
2022/02/25 07:25:29;;;;;;;6.23;1.30;;;1.10;99.90;;;;;;5032405;28;20379;-75
2022/02/25 07:27:55;;;;;;;3.90;1.70;;;1.10;99.90;;;;;;5033689;28;20036;-75
2022/02/25 07:30:22;;;;;;;5.47;1.37;;;1.10;99.90;;;;;;5033894;28;20030;-75
2022/02/25 07:32:50;;;;;;;2.97;1.83;;;1.10;99.90;;;;;;5033532;28;20061;-75
2022/02/25 07:35:16;;;;;;;3.67;1.17;;;1.10;99.90;;;;;;5033827;28;20413;-75
2022/02/25 07:37:42;;;;;;;4.07;1.50;;;1.10;99.90;;;;;;5033568;28;20101;-75
2022/02/25 07:40:10;;;;;;;3.53;1.33;;;1.20;99.90;;;;;;5033530;28;20419;-75
2022/02/25 07:42:36;;;;;;;2.67;1.03;;;1.20;99.90;;;;;;5033634;28;20029;-75
2022/02/25 07:45:03;;;;;;;3.20;1.20;;;1.40;99.90;;;;;;5033718;28;20087;-75
2022/02/25 07:47:29;;;;;;;4.67;1.10;;;1.50;99.90;;;;;;5033226;28;20050;-74
2022/02/25 07:49:56;;;;;;;3.40;1.20;;;1.70;99.90;;;;;;5033207;28;20474;-75
2022/02/25 07:52:24;;;;;;;2.63;1.20;;;1.90;99.90;;;;;;5033191;28;20478;-75
2022/02/25 07:54:50;;;;;;;5.50;1.20;;;2.00;99.90;;;;;;5031790;28;20025;-74
2022/02/25 07:57:16;;;;;;;7.37;1.50;;;2.10;99.90;;;;;;5031745;28;20434;-74
2022/02/25 07:59:42;;;;;;;3.40;1.40;;;2.20;99.90;;;;;;5033014;28;20098;-75
2022/02/25 08:02:09;;;;;;;8.40;1.20;;;2.30;99.90;;;;;;5031745;28;20070;-75
2022/02/25 08:04:35;;;;;;;7.27;2.00;;;2.40;99.90;;;;;;5031637;28;20059;-75
2022/02/25 08:07:01;;;;;;;5.50;2.30;;;2.60;99.90;;;;;;5033055;28;20480;-75
2022/02/25 08:09:27;;;;;;;7.10;1.60;;;2.70;99.90;;;;;;5033025;28;20077;-74
2022/02/25 08:11:52;;;;;;;4.93;1.20;;;2.70;99.90;;;;;;5033255;28;20357;-74
2022/02/25 08:14:18;;;;;;;10.30;3.20;;;2.90;99.90;;;;;;5032882;28;20053;-74
2022/02/25 08:16:44;;;;;;;8.17;2.13;;;2.90;99.90;;;;;;5033248;28;20026;-75
2022/02/25 08:19:09;;;;;;;5.23;1.50;;;3.00;99.90;;;;;;5032967;28;20028;-74
2022/02/25 08:21:35;;;;;;;7.93;2.10;;;3.00;99.90;;;;;;5032916;28;20346;-75
2022/02/25 08:24:02;;;;;;;11.07;2.93;;;3.10;99.90;;;;;;5032966;28;20132;-75
2022/02/25 08:26:27;;;;;;;8.30;1.67;;;3.20;99.90;;;;;;5032968;28;20112;-75
2022/02/25 08:28:55;;;;;;;6.97;1.47;;;3.20;99.90;;;;;;5032706;28;20060;-75
2022/02/25 08:31:22;;;;;;;6.10;1.20;;;3.40;99.90;;;;;;5031065;28;20498;-72
2022/02/25 08:33:48;;;;;;;6.93;1.97;;;3.50;99.90;;;;;;5032827;28;20017;-74
2022/02/25 08:36:13;;;;;;;5.30;1.53;;;3.60;99.90;;;;;;5032772;28;20022;-74
2022/02/25 08:38:39;;;;;;;6.53;1.60;;;3.70;99.90;;;;;;5033053;28;20021;-74
2022/02/25 08:41:04;;;;;;;6.23;1.40;;;3.70;99.90;;;;;;5032475;28;20067;-74
2022/02/25 08:43:30;;;;;;;7.60;2.27;;;3.70;99.90;;;;;;5032579;28;20055;-74
2022/02/25 08:45:57;;;;;;;10.63;1.70;;;3.90;99.90;;;;;;5032548;28;20053;-74
2022/02/25 08:48:23;;;;;;;6.20;1.50;;;4.00;99.90;;;;;;5032735;28;20135;-74
2022/02/25 08:50:50;;;;;;;6.93;1.60;;;4.20;99.90;;;;;;5032624;28;20025;-74
2022/02/25 08:53:15;;;;;;;3.20;1.30;;;4.30;99.90;;;;;;5032688;28;20032;-74
2022/02/25 08:55:41;;;;;;;7.53;1.60;;;4.40;99.90;;;;;;5031303;28;20108;-74
2022/02/25 08:58:07;;;;;;;8.40;1.57;;;4.40;99.90;;;;;;5032576;28;20075;-74
2022/02/25 09:00:32;;;;;;;4.53;1.40;;;4.60;99.90;;;;;;5032298;28;20028;-74
2022/02/25 09:02:58;;;;;;;4.57;1.50;;;4.30;99.90;;;;;;5032835;28;20490;-74
2022/02/25 09:05:25;;;;;;;7.27;2.07;;;4.40;99.90;;;;;;5032508;28;20033;-75
2022/02/25 09:07:52;;;;;;;6.40;1.60;;;4.50;99.90;;;;;;5032506;28;20339;-74
2022/02/25 09:10:19;;;;;;;3.70;1.37;;;4.50;99.90;;;;;;5033759;28;20040;-73
2022/02/25 09:12:46;;;;;;;6.57;1.70;;;4.40;99.90;;;;;;5050432;28;20021;-77
2022/02/25 09:15:15;;;;;;;5.87;1.53;;;4.60;99.90;;;;;;5050842;28;20036;-77
2022/02/25 09:17:41;;;;;;;7.23;1.40;;;4.70;99.90;;;;;;5045936;28;20390;-77
2022/02/25 09:20:08;;;;;;;7.30;1.40;;;4.70;99.90;;;;;;5046136;28;20091;-77
2022/02/25 09:22:35;;;;;;;5.97;1.60;;;5.00;99.90;;;;;;5045998;28;20342;-77
2022/02/25 09:25:01;;;;;;;3.27;1.40;;;5.00;99.90;;;;;;5046497;28;20036;-77
2022/02/25 09:27:28;;;;;;;8.10;1.77;;;5.00;99.90;;;;;;5046214;28;20029;-77
2022/02/25 09:29:53;;;;;;;8.47;1.37;;;5.20;99.90;;;;;;5047034;28;20096;-77
2022/02/25 09:32:19;;;;;;;3.70;1.30;;;5.20;99.90;;;;;;5045340;28;20133;-77
2022/02/25 09:34:46;;;;;;;5.67;1.80;;;5.40;99.90;;;;;;5046578;28;20029;-77
2022/02/25 09:37:11;;;;;;;4.13;1.40;;;5.60;99.90;;;;;;5045070;28;20024;-77
2022/02/25 09:39:37;;;;;;;5.80;1.60;;;6.00;99.90;;;;;;5046235;28;20613;-77
2022/02/25 09:42:05;;;;;;;5.47;1.70;;;6.00;99.90;;;;;;5037501;28;20095;-77
2022/02/25 09:44:31;;;;;;;6.30;1.40;;;6.20;99.90;;;;;;5035024;28;20454;-77
2022/02/25 09:46:56;;;;;;;4.67;1.27;;;6.30;99.90;;;;;;5049772;28;20061;-77
2022/02/25 09:49:22;;;;;;;7.23;1.77;;;6.50;99.90;;;;;;5049022;28;21645;-77
2022/02/25 09:51:48;;;;;;;5.63;1.53;;;6.70;99.90;;;;;;5049565;28;20446;-77
2022/02/25 09:54:16;;;;;;;5.27;1.23;;;6.70;99.90;;;;;;5050134;28;20021;-65
2022/02/25 09:56:42;;;;;;;5.37;2.00;;;6.40;99.90;;;;;;5052772;28;20063;-77
2022/02/25 09:59:09;;;;;;;4.97;1.57;;;6.00;99.90;;;;;;5052736;28;20044;-77
2022/02/25 10:01:35;;;;;;;3.30;1.33;;;6.00;99.90;;;;;;5052939;28;20040;-77
2022/02/25 10:04:22;;;;;;;4.23;1.77;;;6.00;99.90;;;;;;5054442;28;20498;-77
2022/02/25 10:06:48;;;;;;;3.90;2.07;;;6.00;99.90;;;;;;5059119;28;20082;-77
2022/02/25 10:09:32;;;;;;;3.80;1.30;;;6.00;99.90;;;;;;5053809;28;20112;-77
2022/02/25 10:12:12;;;;;;;6.20;1.47;;;6.00;99.90;;;;;;5053880;28;20040;-78
2022/02/25 10:14:43;;;;;;;5.30;1.30;;;5.80;99.90;;;;;;5053727;28;20029;-77
2022/02/25 10:17:22;;;;;;;7.13;1.97;;;5.70;99.90;;;;;;5052149;28;20057;-78
2022/02/25 10:19:52;;;;;;;2.50;1.17;;;5.70;99.90;;;;;;5051799;28;20051;-77
2022/02/25 10:22:20;;;;;;;5.13;1.43;;;5.60;99.90;;;;;;5052478;28;20025;-77
2022/02/25 10:24:49;;;;;;;5.17;1.37;;;5.60;99.90;;;;;;5053318;28;20037;-78
2022/02/25 10:27:17;;;;;;;5.20;1.60;;;5.60;99.90;;;;;;5052913;28;20037;-78
2022/02/25 10:30:00;;;;;;;6.40;1.43;;;5.90;99.90;;;;;;5053212;28;20029;-77
2022/02/25 10:32:28;;;;;;;6.40;1.40;;;6.20;99.90;;;;;;5052671;28;20466;-79
2022/02/25 10:34:53;;;;;;;6.37;1.73;;;6.40;99.90;;;;;;5053063;28;20055;-78
2022/02/25 10:37:20;;;;;;;4.50;1.17;;;6.50;99.90;;;;;;5051873;28;20057;-78
2022/02/25 10:39:47;;;;;;;6.73;1.30;;;6.50;99.90;;;;;;5052724;28;20017;-78
2022/02/25 10:42:19;;;;;;;4.33;1.17;;;6.60;99.90;;;;;;5053170;28;20037;-78
2022/02/25 10:44:57;;;;;;;4.50;1.30;;;6.60;99.90;;;;;;5051844;28;20036;-79
2022/02/25 10:47:27;;;;;;;6.17;1.23;;;6.90;99.90;;;;;;5053056;28;20053;-78
2022/02/25 10:50:15;;;;;;;5.50;1.40;;;6.80;99.90;;;;;;5053482;28;20025;-78
2022/02/25 10:52:49;;;;;;;4.27;1.30;;;6.60;99.90;;;;;;5033426;28;20450;-78
2022/02/25 10:55:18;;;;;;;12.35;1.67;;;6.50;99.90;;;;;;5032405;28;20403;-78
2022/02/25 10:57:44;;;;;;;6.30;1.40;;;6.40;99.90;;;;;;5033430;28;20072;-78
2022/02/25 11:00:12;;;;;;;8.47;1.43;;;6.30;99.90;;;;;;5033686;28;20018;-78
2022/02/25 11:02:38;;;;;;;6.03;1.70;;;6.50;99.90;;;;;;5033002;28;20052;-79
2022/02/25 11:05:12;;;;;;;5.47;1.57;;;6.70;99.90;;;;;;5048582;28;20378;-79
2022/02/25 11:07:43;;;;;;;6.22;1.33;;;6.70;99.90;;;;;;5033774;28;20093;-79
2022/02/25 11:10:11;;;;;;;2.93;1.10;;;7.00;99.90;;;;;;5033864;28;20026;-79
2022/02/25 11:12:39;;;;;;;4.27;1.20;;;6.90;98.80;;;;;;5033888;28;20073;-78
2022/02/25 11:15:07;;;;;;;4.87;1.20;;;6.60;99.20;;;;;;5034196;28;20084;-78
2022/02/25 11:17:35;;;;;;;4.07;1.43;;;6.50;99.90;;;;;;5034119;28;20017;-78
2022/02/25 11:20:02;;;;;;;3.20;1.40;;;6.10;99.90;;;;;;5034038;28;20022;-77
2022/02/25 11:22:29;;;;;;;5.43;2.10;;;6.20;99.90;;;;;;5033914;28;20067;-77
2022/02/25 11:24:57;;;;;;;7.53;1.10;;;6.40;99.90;;;;;;5034210;28;20036;-79
2022/02/25 11:27:23;;;;;;;5.60;1.47;;;6.50;99.90;;;;;;5033838;28;20018;-78
2022/02/25 11:30:04;;;;;;;4.47;1.77;;;6.50;99.90;;;;;;5033773;28;20425;-77
2022/02/25 11:32:36;;;;;;;4.97;1.43;;;6.70;99.90;;;;;;5033352;28;20029;-77
2022/02/25 11:35:15;;;;;;;7.67;1.50;;;6.70;99.90;;;;;;5033834;28;20144;-78
2022/02/25 11:37:47;;;;;;;5.77;1.37;;;6.30;99.90;;;;;;5048668;28;20036;-77
2022/02/25 11:40:13;;;;;;;6.60;1.53;;;6.10;99.90;;;;;;5033777;28;20097;-78
2022/02/25 11:42:39;;;;;;;7.37;1.27;;;6.00;99.90;;;;;;5033600;28;20446;-78
2022/02/25 11:45:19;;;;;;;4.73;1.33;;;5.70;99.90;;;;;;5033610;28;20092;-78
2022/02/25 11:47:57;;;;;;;5.03;1.70;;;5.40;99.90;;;;;;5033416;28;20091;-77
2022/02/25 11:50:32;;;;;;;6.33;1.63;;;5.30;99.90;;;;;;5033434;28;20484;-77
2022/02/25 11:53:16;;;;;;;10.07;1.60;;;5.60;99.90;;;;;;5033261;28;20021;-77
2022/02/25 11:55:44;;;;;;;4.22;1.20;;;6.00;99.90;;;;;;5050282;28;20143;-78
2022/02/25 11:58:41;;;;;;;4.57;1.40;;;6.50;99.90;;;;;;5053472;28;20021;-77
2022/02/25 12:01:27;;;;;;;8.37;1.40;;;7.00;99.90;;;;;;5051937;28;20084;-78
2022/02/25 12:04:08;;;;;;;3.90;1.30;;;7.20;99.60;;;;;;5053210;28;20045;-77
2022/02/25 12:06:55;;;;;;;4.10;1.30;;;7.10;98.50;;;;;;5051761;28;20032;-78
2022/02/25 12:09:54;;;;;;;3.33;1.10;;;6.70;97.30;;;;;;5053346;28;20063;-77
2022/02/25 12:12:22;;;;;;;5.07;1.43;;;6.50;97.10;;;;;;5052997;28;20072;-76
2022/02/25 12:15:16;;;;;;;3.93;1.13;;;6.50;97.60;;;;;;5051062;28;20441;-76
2022/02/25 12:17:51;;;;;;;4.57;1.30;;;6.50;97.30;;;;;;5051456;28;20052;-76
2022/02/25 12:20:21;;;;;;;4.53;1.20;;;6.50;97.50;;;;;;5052523;28;20037;-74
2022/02/25 12:23:05;;;;;;;3.63;1.13;;;6.90;96.30;;;;;;5051563;28;20020;-80
2022/02/25 12:25:40;;;;;;;3.80;1.20;;;6.90;94.90;;;;;;5052877;28;20029;-77
2022/02/25 12:28:26;;;;;;;2.83;1.20;;;6.60;95.50;;;;;;5052816;28;20088;-77
2022/02/25 12:31:01;;;;;;;6.83;1.53;;;6.30;96.10;;;;;;5051145;28;20171;-77
2022/02/25 12:33:39;;;;;;;3.38;1.30;;;6.20;97.40;;;;;;5052482;28;20469;-77
2022/02/25 12:36:26;;;;;;;4.33;1.20;;;6.00;97.00;;;;;;5032621;28;20308;-76
2022/02/25 12:39:18;;;;;;;4.37;1.20;;;5.80;99.00;;;;;;5033033;28;20025;-77
2022/02/25 12:41:44;;;;;;;4.90;1.10;;;5.60;99.90;;;;;;5032627;28;20104;-77
2022/02/25 12:44:19;;;;;;;4.90;1.50;;;5.60;99.90;;;;;;5033011;28;20026;-77
2022/02/25 12:46:51;;;;;;;6.97;1.50;;;5.30;99.90;;;;;;5032350;28;20045;-77
2022/02/25 12:49:20;;;;;;;7.83;1.53;;;5.20;99.90;;;;;;5038242;28;20040;-77
2022/02/25 12:51:47;;;;;;;3.23;1.30;;;5.10;99.90;;;;;;5050839;28;20029;-76
2022/02/25 12:54:15;;;;;;;4.13;1.30;;;5.00;99.90;;;;;;5052457;28;20028;-76
2022/02/25 12:56:45;;;;;;;8.93;1.30;;;5.00;99.90;;;;;;5052521;28;20451;-76
2022/02/25 12:59:16;;;;;;;5.97;1.50;;;5.20;99.90;;;;;;5050984;28;20051;-76
2022/02/25 13:01:54;;;;;;;4.23;1.53;;;5.20;99.90;;;;;;5052344;28;20068;-76
2022/02/25 13:04:26;;;;;;;5.60;1.80;;;5.20;99.90;;;;;;5032375;28;20076;-76
2022/02/25 13:06:54;;;;;;;5.80;1.73;;;5.30;99.90;;;;;;5034817;28;20123;-76
2022/02/25 13:09:32;;;;;;;3.07;1.43;;;5.40;99.90;;;;;;5051942;28;20036;-75